Air Resources Laboratory banner image
Air Resources Laboratory web site National Oceanic and Atmospheric Administration (NOAA)

hi metar


PHBK 110751Z AUTO 09003KT 10SM CLR 26/21 A3011 RMK AO2 SLP197 T02560206=
PHHI 110756Z AUTO 12006KT 10SM OVC030 25/18 A3015 RMK AO2 SLP197 T02490176 $=
PHJR 110753Z 07006KT 10SM FEW041 28/19 A3012 RMK AO2 SLP207 T02780189=
PHKO 110753Z 06006KT 10SM CLR 26/21 A3007 RMK AO2 SLP180 T02610206=
PHLI 110753Z 04014KT 10SM CLR 25/22 A3017 RMK AO2 SLP213 LAST T02500217=
PHMK 110754Z AUTO 04010G25KT 10SM CLR 25/21 A3012 RMK AO2 PK WND 04030/0720
 SLP199 T02500211 TSNO $=
PHNG 110757Z 06010G16KT 10SM SCT026 26/21 A3012 RMK AO2 SLP195 T02610211=
PHNL 110753Z 07012G21KT 10SM FEW024 SCT036 BKN048 27/20 A3011 RMK AO2 SLP196
 T02670200=
PHNY 110756Z AUTO 05011KT 10SM CLR 23/20 A3016 RMK AO2 SLP189 T02280200 $=
PHOG 110754Z 06018G27KT 10SM FEW040 27/21 A3010 RMK AO2 PK WND 06029/0656
 SLP196 T02670206=
PHSF 110758Z AUTO 14016KT 10SM CLR 16/M01 A3044 RMK AO2 SLP179 T01621013 $=
PHTO 110753Z 24006KT 7SM -RA SCT026 OVC031 23/22 A3015 RMK AO2 RAE13B49 SLP209
 P0001 T02330217=